Sunshine, North Carolina
Current Conditions -  °F | °C
As of 8:35 PM on Thursday 27 Nov 2014 (Local Time) from KFQD Reporting Station
Clear Clear  
Wind Chill: 31°   Ceiling: Unl
Heat Index: 37°   Visibility: 10mi
Dew Point: 23°   Wind: 8mph
Humidity: 57%   Direction: 260°W
Pressure: 30.27"   Gusts: NA
Location:  35.4977°N, 81.7958°W
Report Text: KFQD 280135Z AUTO 26007KT 10SM CLR 03/M05 A3027 RMK AO2 T00281050
Loading
Personal Weather Stations






























Interactive Weather Map New forecast layout! Learn more

10-Day Weather Forecast

Advertisements
Track Severe Weather on mobile